sensor_id;sensor_type;location;lat;lon;timestamp;temperature;humidity
52869;DHT22;39100;53.480;6.158;2023-05-10T00:02:02;13.00;99.90
52869;DHT22;39100;53.480;6.158;2023-05-10T00:04:28;13.00;99.90
52869;DHT22;39100;53.480;6.158;2023-05-10T00:06:53;13.10;99.90
52869;DHT22;39100;53.480;6.158;2023-05-10T00:09:20;13.00;99.90
52869;DHT22;39100;53.480;6.158;2023-05-10T00:11:45;13.00;99.90
52869;DHT22;39100;53.480;6.158;2023-05-10T00:14:11;13.00;99.90
52869;DHT22;39100;53.480;6.158;2023-05-10T00:16:37;12.90;99.90
52869;DHT22;39100;53.480;6.158;2023-05-10T00:19:02;12.90;99.90
52869;DHT22;39100;53.480;6.158;2023-05-10T00:21:28;12.80;99.90
52869;DHT22;39100;53.480;6.158;2023-05-10T00:23:54;12.80;99.90
52869;DHT22;39100;53.480;6.158;2023-05-10T00:26:20;12.80;99.90
52869;DHT22;39100;53.480;6.158;2023-05-10T00:28:45;12.80;99.90
52869;DHT22;39100;53.480;6.158;2023-05-10T00:31:11;12.80;99.90
52869;DHT22;39100;53.480;6.158;2023-05-10T00:33:36;12.70;99.90
52869;DHT22;39100;53.480;6.158;2023-05-10T00:36:02;12.70;99.90
52869;DHT22;39100;53.480;6.158;2023-05-10T00:38:28;12.70;99.90
52869;DHT22;39100;53.480;6.158;2023-05-10T00:40:53;12.70;99.90
52869;DHT22;39100;53.480;6.158;2023-05-10T00:43:19;12.70;99.90
52869;DHT22;39100;53.480;6.158;2023-05-10T00:45:45;12.70;99.90
52869;DHT22;39100;53.480;6.158;2023-05-10T00:48:11;12.70;99.90
52869;DHT22;39100;53.480;6.158;2023-05-10T00:50:37;12.70;99.90
52869;DHT22;39100;53.480;6.158;2023-05-10T00:53:03;12.70;99.90
52869;DHT22;39100;53.480;6.158;2023-05-10T00:55:28;12.70;99.90
52869;DHT22;39100;53.480;6.158;2023-05-10T00:57:54;12.70;99.90
52869;DHT22;39100;53.480;6.158;2023-05-10T01:00:20;12.70;99.90
52869;DHT22;39100;53.480;6.158;2023-05-10T01:02:46;12.70;99.90
52869;DHT22;39100;53.480;6.158;2023-05-10T01:05:12;12.70;99.90
52869;DHT22;39100;53.480;6.158;2023-05-10T01:07:38;12.70;99.90
52869;DHT22;39100;53.480;6.158;2023-05-10T01:10:05;12.70;99.90
52869;DHT22;39100;53.480;6.158;2023-05-10T01:12:31;12.70;99.90
52869;DHT22;39100;53.480;6.158;2023-05-10T01:14:57;12.70;99.90
52869;DHT22;39100;53.480;6.158;2023-05-10T01:17:23;12.70;99.90
52869;DHT22;39100;53.480;6.158;2023-05-10T01:19:49;12.60;99.90
52869;DHT22;39100;53.480;6.158;2023-05-10T01:25:32;12.70;99.90
52869;DHT22;39100;53.480;6.158;2023-05-10T01:34:02;12.60;99.90
52869;DHT22;39100;53.480;6.158;2023-05-10T01:36:39;12.60;99.90
52869;DHT22;39100;53.480;6.158;2023-05-10T01:41:43;12.60;99.90
52869;DHT22;39100;53.480;6.158;2023-05-10T01:47:15;12.60;99.90
52869;DHT22;39100;53.480;6.158;2023-05-10T01:49:47;12.50;99.90
52869;DHT22;39100;53.480;6.158;2023-05-10T01:52:17;12.50;99.90
52869;DHT22;39100;53.480;6.158;2023-05-10T01:54:57;12.50;99.90
52869;DHT22;39100;53.480;6.158;2023-05-10T01:57:26;12.40;99.90
52869;DHT22;39100;53.480;6.158;2023-05-10T01:59:53;12.50;99.90
52869;DHT22;39100;53.480;6.158;2023-05-10T02:02:20;12.40;99.90
52869;DHT22;39100;53.480;6.158;2023-05-10T02:04:46;12.40;99.90
52869;DHT22;39100;53.480;6.158;2023-05-10T02:07:13;12.40;99.90
52869;DHT22;39100;53.480;6.158;2023-05-10T02:09:40;12.40;99.90
52869;DHT22;39100;53.480;6.158;2023-05-10T02:12:07;12.30;99.90
52869;DHT22;39100;53.480;6.158;2023-05-10T02:14:36;12.30;99.90
52869;DHT22;39100;53.480;6.158;2023-05-10T02:17:04;12.30;99.90
52869;DHT22;39100;53.480;6.158;2023-05-10T02:19:31;12.30;99.90
52869;DHT22;39100;53.480;6.158;2023-05-10T02:21:59;12.30;99.90
52869;DHT22;39100;53.480;6.158;2023-05-10T02:24:25;12.30;99.90
52869;DHT22;39100;53.480;6.158;2023-05-10T02:26:53;12.20;99.90
52869;DHT22;39100;53.480;6.158;2023-05-10T02:29:25;12.20;99.90
52869;DHT22;39100;53.480;6.158;2023-05-10T02:31:54;12.20;99.90
52869;DHT22;39100;53.480;6.158;2023-05-10T02:34:22;12.60;99.90
52869;DHT22;39100;53.480;6.158;2023-05-10T02:36:50;12.20;99.90
52869;DHT22;39100;53.480;6.158;2023-05-10T02:39:18;12.20;99.90
52869;DHT22;39100;53.480;6.158;2023-05-10T02:41:45;12.20;99.90
52869;DHT22;39100;53.480;6.158;2023-05-10T02:44:13;12.20;99.90
52869;DHT22;39100;53.480;6.158;2023-05-10T02:46:39;12.20;99.90
52869;DHT22;39100;53.480;6.158;2023-05-10T02:49:05;12.20;99.90
52869;DHT22;39100;53.480;6.158;2023-05-10T02:51:32;12.20;99.90
52869;DHT22;39100;53.480;6.158;2023-05-10T02:54:27;12.20;99.90
52869;DHT22;39100;53.480;6.158;2023-05-10T02:56:57;12.20;99.90
52869;DHT22;39100;53.480;6.158;2023-05-10T02:59:23;12.10;99.90
52869;DHT22;39100;53.480;6.158;2023-05-10T03:01:49;12.10;99.90
52869;DHT22;39100;53.480;6.158;2023-05-10T03:04:14;12.40;99.90
52869;DHT22;39100;53.480;6.158;2023-05-10T03:06:40;12.10;99.90
52869;DHT22;39100;53.480;6.158;2023-05-10T03:09:06;12.10;99.90
52869;DHT22;39100;53.480;6.158;2023-05-10T03:14:45;12.20;99.90
52869;DHT22;39100;53.480;6.158;2023-05-10T03:17:40;12.20;99.90
52869;DHT22;39100;53.480;6.158;2023-05-10T03:20:08;12.10;99.90
52869;DHT22;39100;53.480;6.158;2023-05-10T03:22:37;12.10;99.90
52869;DHT22;39100;53.480;6.158;2023-05-10T03:25:06;12.10;99.90
52869;DHT22;39100;53.480;6.158;2023-05-10T03:27:32;12.10;99.90
52869;DHT22;39100;53.480;6.158;2023-05-10T03:29:59;12.10;99.90
52869;DHT22;39100;53.480;6.158;2023-05-10T03:32:28;12.10;99.90
52869;DHT22;39100;53.480;6.158;2023-05-10T03:34:55;12.10;99.90
52869;DHT22;39100;53.480;6.158;2023-05-10T03:37:21;12.10;99.90
52869;DHT22;39100;53.480;6.158;2023-05-10T03:39:46;12.10;99.90
52869;DHT22;39100;53.480;6.158;2023-05-10T03:42:12;12.10;99.90
52869;DHT22;39100;53.480;6.158;2023-05-10T03:44:40;12.10;99.90
52869;DHT22;39100;53.480;6.158;2023-05-10T03:47:06;12.10;99.90
52869;DHT22;39100;53.480;6.158;2023-05-10T03:49:32;12.10;99.90
52869;DHT22;39100;53.480;6.158;2023-05-10T03:51:57;12.10;99.90
52869;DHT22;39100;53.480;6.158;2023-05-10T03:54:23;12.10;99.90
52869;DHT22;39100;53.480;6.158;2023-05-10T03:56:48;12.10;99.90
52869;DHT22;39100;53.480;6.158;2023-05-10T03:59:14;12.10;99.90
52869;DHT22;39100;53.480;6.158;2023-05-10T04:01:39;12.10;99.90
52869;DHT22;39100;53.480;6.158;2023-05-10T04:04:05;12.10;99.90
52869;DHT22;39100;53.480;6.158;2023-05-10T04:06:30;12.10;99.90
52869;DHT22;39100;53.480;6.158;2023-05-10T04:08:57;12.00;99.90
52869;DHT22;39100;53.480;6.158;2023-05-10T04:11:25;12.10;99.90
52869;DHT22;39100;53.480;6.158;2023-05-10T04:13:51;12.10;99.90
52869;DHT22;39100;53.480;6.158;2023-05-10T04:16:16;12.10;99.90
52869;DHT22;39100;53.480;6.158;2023-05-10T04:18:42;12.10;99.90
52869;DHT22;39100;53.480;6.158;2023-05-10T04:21:12;12.10;99.90
52869;DHT22;39100;53.480;6.158;2023-05-10T04:23:38;12.00;99.90
52869;DHT22;39100;53.480;6.158;2023-05-10T04:26:04;12.10;99.90
52869;DHT22;39100;53.480;6.158;2023-05-10T04:28:29;12.00;99.90
52869;DHT22;39100;53.480;6.158;2023-05-10T04:31:21;12.00;99.90
52869;DHT22;39100;53.480;6.158;2023-05-10T04:33:47;12.00;99.90
52869;DHT22;39100;53.480;6.158;2023-05-10T04:36:12;12.00;99.90
52869;DHT22;39100;53.480;6.158;2023-05-10T04:38:38;12.10;99.90
52869;DHT22;39100;53.480;6.158;2023-05-10T04:41:08;12.00;99.90
52869;DHT22;39100;53.480;6.158;2023-05-10T04:43:33;12.00;99.90
52869;DHT22;39100;53.480;6.158;2023-05-10T04:45:59;12.00;99.90
52869;DHT22;39100;53.480;6.158;2023-05-10T04:48:25;12.00;99.90
52869;DHT22;39100;53.480;6.158;2023-05-10T04:50:50;12.00;99.90
52869;DHT22;39100;53.480;6.158;2023-05-10T04:53:16;12.00;99.90
52869;DHT22;39100;53.480;6.158;2023-05-10T04:55:42;12.00;99.90
52869;DHT22;39100;53.480;6.158;2023-05-10T04:58:07;11.90;99.90
52869;DHT22;39100;53.480;6.158;2023-05-10T05:00:33;12.00;99.90
52869;DHT22;39100;53.480;6.158;2023-05-10T05:02:59;11.90;99.90
52869;DHT22;39100;53.480;6.158;2023-05-10T05:05:25;11.90;99.90
52869;DHT22;39100;53.480;6.158;2023-05-10T05:07:50;11.90;99.90
52869;DHT22;39100;53.480;6.158;2023-05-10T05:10:16;12.00;99.90
52869;DHT22;39100;53.480;6.158;2023-05-10T05:12:41;11.90;99.90
52869;DHT22;39100;53.480;6.158;2023-05-10T05:15:07;11.90;99.90
52869;DHT22;39100;53.480;6.158;2023-05-10T05:17:35;11.90;99.90
52869;DHT22;39100;53.480;6.158;2023-05-10T05:20:00;11.90;99.90
52869;DHT22;39100;53.480;6.158;2023-05-10T05:22:26;11.90;99.90
52869;DHT22;39100;53.480;6.158;2023-05-10T05:24:55;11.90;99.90
52869;DHT22;39100;53.480;6.158;2023-05-10T05:27:21;11.90;99.90
52869;DHT22;39100;53.480;6.158;2023-05-10T05:29:50;11.90;99.90
52869;DHT22;39100;53.480;6.158;2023-05-10T05:32:16;11.90;99.90
52869;DHT22;39100;53.480;6.158;2023-05-10T05:34:44;11.90;99.90
52869;DHT22;39100;53.480;6.158;2023-05-10T05:37:16;11.90;99.90
52869;DHT22;39100;53.480;6.158;2023-05-10T05:39:42;11.90;99.90
52869;DHT22;39100;53.480;6.158;2023-05-10T05:42:08;11.90;99.90
52869;DHT22;39100;53.480;6.158;2023-05-10T05:44:34;11.90;99.90
52869;DHT22;39100;53.480;6.158;2023-05-10T05:47:00;11.80;99.90
52869;DHT22;39100;53.480;6.158;2023-05-10T05:49:25;11.90;99.90
52869;DHT22;39100;53.480;6.158;2023-05-10T05:51:51;11.90;99.90
52869;DHT22;39100;53.480;6.158;2023-05-10T05:54:16;11.80;99.90
52869;DHT22;39100;53.480;6.158;2023-05-10T05:56:42;11.80;99.90
52869;DHT22;39100;53.480;6.158;2023-05-10T05:59:07;11.90;99.90
52869;DHT22;39100;53.480;6.158;2023-05-10T06:01:33;11.80;99.90
52869;DHT22;39100;53.480;6.158;2023-05-10T06:03:59;11.80;99.90
52869;DHT22;39100;53.480;6.158;2023-05-10T06:06:24;11.80;99.90
52869;DHT22;39100;53.480;6.158;2023-05-10T06:08:50;11.80;99.90
52869;DHT22;39100;53.480;6.158;2023-05-10T06:11:15;11.80;99.90
52869;DHT22;39100;53.480;6.158;2023-05-10T06:13:41;11.90;99.90
52869;DHT22;39100;53.480;6.158;2023-05-10T06:16:07;11.80;99.90
52869;DHT22;39100;53.480;6.158;2023-05-10T06:18:33;11.80;99.90
52869;DHT22;39100;53.480;6.158;2023-05-10T06:20:58;11.80;99.90
52869;DHT22;39100;53.480;6.158;2023-05-10T06:23:24;11.90;99.90
52869;DHT22;39100;53.480;6.158;2023-05-10T06:25:51;11.90;99.90
52869;DHT22;39100;53.480;6.158;2023-05-10T06:28:16;11.90;99.90
52869;DHT22;39100;53.480;6.158;2023-05-10T06:30:42;11.90;99.90
52869;DHT22;39100;53.480;6.158;2023-05-10T06:33:07;12.00;99.90
52869;DHT22;39100;53.480;6.158;2023-05-10T06:35:33;12.00;99.90
52869;DHT22;39100;53.480;6.158;2023-05-10T06:37:59;12.00;99.90
52869;DHT22;39100;53.480;6.158;2023-05-10T06:40:24;12.10;99.90
52869;DHT22;39100;53.480;6.158;2023-05-10T06:42:50;12.10;99.90
52869;DHT22;39100;53.480;6.158;2023-05-10T06:45:16;12.20;99.90
52869;DHT22;39100;53.480;6.158;2023-05-10T06:47:42;12.20;99.90
52869;DHT22;39100;53.480;6.158;2023-05-10T06:50:08;12.20;99.90
52869;DHT22;39100;53.480;6.158;2023-05-10T06:52:34;12.20;99.90
52869;DHT22;39100;53.480;6.158;2023-05-10T06:55:00;12.30;99.90
52869;DHT22;39100;53.480;6.158;2023-05-10T06:57:26;12.30;99.90
52869;DHT22;39100;53.480;6.158;2023-05-10T06:59:52;12.30;99.90
52869;DHT22;39100;53.480;6.158;2023-05-10T07:02:17;12.40;99.90
52869;DHT22;39100;53.480;6.158;2023-05-10T07:04:43;12.40;99.90
52869;DHT22;39100;53.480;6.158;2023-05-10T07:07:09;12.40;99.90
52869;DHT22;39100;53.480;6.158;2023-05-10T07:09:34;12.40;99.90
52869;DHT22;39100;53.480;6.158;2023-05-10T07:12:00;12.40;99.90
52869;DHT22;39100;53.480;6.158;2023-05-10T07:14:27;12.40;99.90
52869;DHT22;39100;53.480;6.158;2023-05-10T07:16:53;12.70;99.90
52869;DHT22;39100;53.480;6.158;2023-05-10T07:19:18;12.40;99.90
52869;DHT22;39100;53.480;6.158;2023-05-10T07:21:45;12.40;99.90
52869;DHT22;39100;53.480;6.158;2023-05-10T07:24:10;12.40;99.90
52869;DHT22;39100;53.480;6.158;2023-05-10T07:26:36;12.40;99.90
52869;DHT22;39100;53.480;6.158;2023-05-10T07:29:02;12.40;99.90
52869;DHT22;39100;53.480;6.158;2023-05-10T07:31:27;12.40;99.90
52869;DHT22;39100;53.480;6.158;2023-05-10T07:33:53;12.50;99.90
52869;DHT22;39100;53.480;6.158;2023-05-10T07:36:19;12.50;99.90
52869;DHT22;39100;53.480;6.158;2023-05-10T07:38:44;12.60;99.90
52869;DHT22;39100;53.480;6.158;2023-05-10T07:41:11;12.60;99.90
52869;DHT22;39100;53.480;6.158;2023-05-10T07:43:37;12.60;99.90
52869;DHT22;39100;53.480;6.158;2023-05-10T07:46:02;12.60;99.90
52869;DHT22;39100;53.480;6.158;2023-05-10T07:48:28;12.70;99.90
52869;DHT22;39100;53.480;6.158;2023-05-10T07:50:54;12.60;99.90
52869;DHT22;39100;53.480;6.158;2023-05-10T07:53:19;12.70;99.90
52869;DHT22;39100;53.480;6.158;2023-05-10T07:55:50;12.70;99.90
52869;DHT22;39100;53.480;6.158;2023-05-10T07:58:16;12.70;99.90
52869;DHT22;39100;53.480;6.158;2023-05-10T08:00:41;12.60;99.90
52869;DHT22;39100;53.480;6.158;2023-05-10T08:03:07;12.70;99.90
52869;DHT22;39100;53.480;6.158;2023-05-10T08:05:32;12.70;99.90
52869;DHT22;39100;53.480;6.158;2023-05-10T08:07:58;12.70;99.90
52869;DHT22;39100;53.480;6.158;2023-05-10T08:10:25;12.70;99.90
52869;DHT22;39100;53.480;6.158;2023-05-10T08:12:50;12.70;99.90
52869;DHT22;39100;53.480;6.158;2023-05-10T08:15:16;12.80;99.90
52869;DHT22;39100;53.480;6.158;2023-05-10T08:17:42;12.80;99.90
52869;DHT22;39100;53.480;6.158;2023-05-10T08:20:08;12.80;99.90
52869;DHT22;39100;53.480;6.158;2023-05-10T08:22:34;12.80;99.90
52869;DHT22;39100;53.480;6.158;2023-05-10T08:25:00;13.10;99.90
52869;DHT22;39100;53.480;6.158;2023-05-10T08:27:25;12.70;99.90
52869;DHT22;39100;53.480;6.158;2023-05-10T08:29:51;12.70;99.90
52869;DHT22;39100;53.480;6.158;2023-05-10T08:32:17;12.70;99.90
52869;DHT22;39100;53.480;6.158;2023-05-10T08:34:43;12.70;99.90
52869;DHT22;39100;53.480;6.158;2023-05-10T08:37:08;12.60;99.90
52869;DHT22;39100;53.480;6.158;2023-05-10T08:39:35;12.70;99.90
52869;DHT22;39100;53.480;6.158;2023-05-10T08:42:03;12.70;99.90
52869;DHT22;39100;53.480;6.158;2023-05-10T08:44:32;12.70;99.90
52869;DHT22;39100;53.480;6.158;2023-05-10T08:46:59;12.70;99.90
52869;DHT22;39100;53.480;6.158;2023-05-10T08:49:31;12.80;99.90
52869;DHT22;39100;53.480;6.158;2023-05-10T08:51:57;12.90;99.90
52869;DHT22;39100;53.480;6.158;2023-05-10T08:54:25;12.90;99.90
52869;DHT22;39100;53.480;6.158;2023-05-10T08:56:50;13.10;99.90
52869;DHT22;39100;53.480;6.158;2023-05-10T08:59:16;13.20;99.90
52869;DHT22;39100;53.480;6.158;2023-05-10T09:01:43;13.60;99.90
52869;DHT22;39100;53.480;6.158;2023-05-10T09:04:10;13.40;99.90
52869;DHT22;39100;53.480;6.158;2023-05-10T09:06:35;13.50;99.90
52869;DHT22;39100;53.480;6.158;2023-05-10T09:09:01;13.50;99.90
52869;DHT22;39100;53.480;6.158;2023-05-10T09:11:28;13.60;99.90
52869;DHT22;39100;53.480;6.158;2023-05-10T09:13:55;13.60;99.90
52869;DHT22;39100;53.480;6.158;2023-05-10T09:16:21;13.60;99.90
52869;DHT22;39100;53.480;6.158;2023-05-10T09:18:47;13.60;99.90
52869;DHT22;39100;53.480;6.158;2023-05-10T09:21:14;13.60;99.90
52869;DHT22;39100;53.480;6.158;2023-05-10T09:23:43;13.80;99.90
52869;DHT22;39100;53.480;6.158;2023-05-10T09:26:09;13.70;99.90
52869;DHT22;39100;53.480;6.158;2023-05-10T09:28:53;13.80;99.90
52869;DHT22;39100;53.480;6.158;2023-05-10T09:31:19;13.80;99.90
52869;DHT22;39100;53.480;6.158;2023-05-10T09:33:46;13.80;99.90
52869;DHT22;39100;53.480;6.158;2023-05-10T09:36:13;13.80;99.90
52869;DHT22;39100;53.480;6.158;2023-05-10T09:38:52;13.80;99.90
52869;DHT22;39100;53.480;6.158;2023-05-10T09:41:18;13.70;99.90
52869;DHT22;39100;53.480;6.158;2023-05-10T09:43:44;13.80;99.90
52869;DHT22;39100;53.480;6.158;2023-05-10T09:46:10;14.10;99.90
52869;DHT22;39100;53.480;6.158;2023-05-10T09:48:42;13.80;99.90
52869;DHT22;39100;53.480;6.158;2023-05-10T09:51:08;13.90;99.90
52869;DHT22;39100;53.480;6.158;2023-05-10T09:53:33;14.00;99.90
52869;DHT22;39100;53.480;6.158;2023-05-10T09:56:00;14.00;99.90
52869;DHT22;39100;53.480;6.158;2023-05-10T09:58:25;14.80;99.90
52869;DHT22;39100;53.480;6.158;2023-05-10T10:00:52;14.10;99.90
52869;DHT22;39100;53.480;6.158;2023-05-10T10:03:20;14.10;99.90
52869;DHT22;39100;53.480;6.158;2023-05-10T10:05:47;14.10;99.90
52869;DHT22;39100;53.480;6.158;2023-05-10T10:08:13;14.10;99.90
52869;DHT22;39100;53.480;6.158;2023-05-10T10:10:40;14.10;99.90
52869;DHT22;39100;53.480;6.158;2023-05-10T10:13:06;14.10;99.90
52869;DHT22;39100;53.480;6.158;2023-05-10T10:15:33;14.10;99.90
52869;DHT22;39100;53.480;6.158;2023-05-10T10:17:59;14.00;99.90
52869;DHT22;39100;53.480;6.158;2023-05-10T10:20:26;14.10;99.90
52869;DHT22;39100;53.480;6.158;2023-05-10T10:22:52;13.90;99.90
52869;DHT22;39100;53.480;6.158;2023-05-10T10:25:20;13.90;99.90
52869;DHT22;39100;53.480;6.158;2023-05-10T10:36:00;13.70;99.90
52869;DHT22;39100;53.480;6.158;2023-05-10T10:38:26;13.70;99.90
52869;DHT22;39100;53.480;6.158;2023-05-10T10:41:10;13.70;99.90
52869;DHT22;39100;53.480;6.158;2023-05-10T10:43:36;13.70;99.90
52869;DHT22;39100;53.480;6.158;2023-05-10T10:46:18;13.60;99.90
52869;DHT22;39100;53.480;6.158;2023-05-10T10:51:32;13.60;99.90
52869;DHT22;39100;53.480;6.158;2023-05-10T10:54:09;13.60;99.90
52869;DHT22;39100;53.480;6.158;2023-05-10T10:56:35;13.60;99.90
52869;DHT22;39100;53.480;6.158;2023-05-10T10:59:01;13.60;99.90
52869;DHT22;39100;53.480;6.158;2023-05-10T11:01:33;13.60;99.90
52869;DHT22;39100;53.480;6.158;2023-05-10T11:06:32;13.60;99.90
52869;DHT22;39100;53.480;6.158;2023-05-10T11:08:59;13.30;99.90
52869;DHT22;39100;53.480;6.158;2023-05-10T11:11:24;13.60;99.90
52869;DHT22;39100;53.480;6.158;2023-05-10T11:13:51;13.70;99.90
52869;DHT22;39100;53.480;6.158;2023-05-10T11:16:22;13.60;99.90
52869;DHT22;39100;53.480;6.158;2023-05-10T11:18:59;13.60;99.90
52869;DHT22;39100;53.480;6.158;2023-05-10T11:21:27;13.60;99.90
52869;DHT22;39100;53.480;6.158;2023-05-10T11:23:57;13.60;99.90
52869;DHT22;39100;53.480;6.158;2023-05-10T11:26:34;13.60;99.90
52869;DHT22;39100;53.480;6.158;2023-05-10T11:29:00;13.60;99.90
52869;DHT22;39100;53.480;6.158;2023-05-10T11:31:27;13.70;99.90
52869;DHT22;39100;53.480;6.158;2023-05-10T11:33:58;13.70;99.90
52869;DHT22;39100;53.480;6.158;2023-05-10T11:36:25;13.70;99.90
52869;DHT22;39100;53.480;6.158;2023-05-10T11:38:52;13.70;99.90
52869;DHT22;39100;53.480;6.158;2023-05-10T11:41:19;13.70;99.90
52869;DHT22;39100;53.480;6.158;2023-05-10T11:43:49;13.70;99.90
52869;DHT22;39100;53.480;6.158;2023-05-10T11:46:17;13.80;99.90
52869;DHT22;39100;53.480;6.158;2023-05-10T11:48:43;13.80;99.90
52869;DHT22;39100;53.480;6.158;2023-05-10T11:51:10;13.90;99.90
52869;DHT22;39100;53.480;6.158;2023-05-10T11:53:36;13.90;99.90
52869;DHT22;39100;53.480;6.158;2023-05-10T11:56:11;13.90;99.90
52869;DHT22;39100;53.480;6.158;2023-05-10T11:58:38;14.00;99.90
52869;DHT22;39100;53.480;6.158;2023-05-10T12:01:05;14.10;99.90
52869;DHT22;39100;53.480;6.158;2023-05-10T12:03:31;14.10;99.90
52869;DHT22;39100;53.480;6.158;2023-05-10T12:05:58;14.00;99.90
52869;DHT22;39100;53.480;6.158;2023-05-10T12:08:26;14.10;99.90
52869;DHT22;39100;53.480;6.158;2023-05-10T12:10:53;14.20;99.90
52869;DHT22;39100;53.480;6.158;2023-05-10T12:13:19;14.20;99.90
52869;DHT22;39100;53.480;6.158;2023-05-10T12:15:46;14.20;99.90
52869;DHT22;39100;53.480;6.158;2023-05-10T12:18:12;14.10;99.90
52869;DHT22;39100;53.480;6.158;2023-05-10T12:20:39;14.20;99.90
52869;DHT22;39100;53.480;6.158;2023-05-10T12:23:07;14.20;99.90
52869;DHT22;39100;53.480;6.158;2023-05-10T12:25:35;14.20;99.90
52869;DHT22;39100;53.480;6.158;2023-05-10T12:28:04;14.20;99.90
52869;DHT22;39100;53.480;6.158;2023-05-10T12:30:32;14.30;99.90
52869;DHT22;39100;53.480;6.158;2023-05-10T12:33:02;14.30;99.90
52869;DHT22;39100;53.480;6.158;2023-05-10T12:35:31;14.40;99.90
52869;DHT22;39100;53.480;6.158;2023-05-10T12:37:57;14.50;99.90
52869;DHT22;39100;53.480;6.158;2023-05-10T12:40:23;14.50;99.90
52869;DHT22;39100;53.480;6.158;2023-05-10T12:42:48;14.50;99.90
52869;DHT22;39100;53.480;6.158;2023-05-10T12:45:14;14.60;99.90
52869;DHT22;39100;53.480;6.158;2023-05-10T12:47:40;14.70;99.90
52869;DHT22;39100;53.480;6.158;2023-05-10T12:50:06;14.70;99.90
52869;DHT22;39100;53.480;6.158;2023-05-10T12:52:32;14.80;99.90
52869;DHT22;39100;53.480;6.158;2023-05-10T12:54:58;14.70;99.90
52869;DHT22;39100;53.480;6.158;2023-05-10T12:57:24;14.80;99.90
52869;DHT22;39100;53.480;6.158;2023-05-10T12:59:50;14.80;99.90
52869;DHT22;39100;53.480;6.158;2023-05-10T13:02:16;14.80;99.90
52869;DHT22;39100;53.480;6.158;2023-05-10T13:04:44;14.80;99.90
52869;DHT22;39100;53.480;6.158;2023-05-10T13:07:09;14.90;99.90
52869;DHT22;39100;53.480;6.158;2023-05-10T13:09:35;15.00;99.90
52869;DHT22;39100;53.480;6.158;2023-05-10T13:12:01;15.00;99.90
52869;DHT22;39100;53.480;6.158;2023-05-10T13:14:27;14.90;99.90
52869;DHT22;39100;53.480;6.158;2023-05-10T13:16:53;14.80;99.90
52869;DHT22;39100;53.480;6.158;2023-05-10T13:19:19;14.80;99.90
52869;DHT22;39100;53.480;6.158;2023-05-10T13:21:45;14.80;99.90
52869;DHT22;39100;53.480;6.158;2023-05-10T13:24:11;14.70;99.90
52869;DHT22;39100;53.480;6.158;2023-05-10T13:26:39;14.60;99.90
52869;DHT22;39100;53.480;6.158;2023-05-10T13:29:04;14.60;99.90
52869;DHT22;39100;53.480;6.158;2023-05-10T13:31:30;14.60;99.90
52869;DHT22;39100;53.480;6.158;2023-05-10T13:33:56;14.70;99.90
52869;DHT22;39100;53.480;6.158;2023-05-10T13:36:21;14.70;99.90
52869;DHT22;39100;53.480;6.158;2023-05-10T13:38:48;14.60;99.90
52869;DHT22;39100;53.480;6.158;2023-05-10T13:41:13;14.50;99.90
52869;DHT22;39100;53.480;6.158;2023-05-10T13:43:39;14.40;99.90
52869;DHT22;39100;53.480;6.158;2023-05-10T13:46:05;14.40;99.90
52869;DHT22;39100;53.480;6.158;2023-05-10T13:48:31;14.40;99.90
52869;DHT22;39100;53.480;6.158;2023-05-10T13:50:56;14.80;99.90
52869;DHT22;39100;53.480;6.158;2023-05-10T13:53:22;14.70;99.90
52869;DHT22;39100;53.480;6.158;2023-05-10T13:55:48;14.70;99.90
52869;DHT22;39100;53.480;6.158;2023-05-10T13:58:13;14.50;99.90
52869;DHT22;39100;53.480;6.158;2023-05-10T14:00:39;14.60;99.90
52869;DHT22;39100;53.480;6.158;2023-05-10T14:03:04;14.60;99.90
52869;DHT22;39100;53.480;6.158;2023-05-10T14:05:31;14.70;99.90
52869;DHT22;39100;53.480;6.158;2023-05-10T14:07:57;14.80;99.90
52869;DHT22;39100;53.480;6.158;2023-05-10T14:10:22;14.90;99.90
52869;DHT22;39100;53.480;6.158;2023-05-10T14:12:49;14.90;99.90
52869;DHT22;39100;53.480;6.158;2023-05-10T14:15:14;14.90;99.90
52869;DHT22;39100;53.480;6.158;2023-05-10T14:17:40;14.90;99.90
52869;DHT22;39100;53.480;6.158;2023-05-10T14:20:06;14.80;99.90
52869;DHT22;39100;53.480;6.158;2023-05-10T14:22:32;14.80;99.90
52869;DHT22;39100;53.480;6.158;2023-05-10T14:24:58;14.80;99.90
52869;DHT22;39100;53.480;6.158;2023-05-10T14:27:23;14.70;99.90
52869;DHT22;39100;53.480;6.158;2023-05-10T14:29:49;14.60;99.90
52869;DHT22;39100;53.480;6.158;2023-05-10T14:32:15;14.70;99.90
52869;DHT22;39100;53.480;6.158;2023-05-10T14:34:41;14.50;99.90
52869;DHT22;39100;53.480;6.158;2023-05-10T14:37:06;14.40;99.90
52869;DHT22;39100;53.480;6.158;2023-05-10T14:39:32;14.40;99.90
52869;DHT22;39100;53.480;6.158;2023-05-10T14:41:58;14.40;99.90
52869;DHT22;39100;53.480;6.158;2023-05-10T14:44:24;14.40;99.90
52869;DHT22;39100;53.480;6.158;2023-05-10T14:46:49;14.40;99.90
52869;DHT22;39100;53.480;6.158;2023-05-10T14:49:15;14.40;99.90
52869;DHT22;39100;53.480;6.158;2023-05-10T14:51:40;14.50;99.90
52869;DHT22;39100;53.480;6.158;2023-05-10T14:54:06;14.60;99.90
52869;DHT22;39100;53.480;6.158;2023-05-10T14:56:32;14.60;99.90
52869;DHT22;39100;53.480;6.158;2023-05-10T14:58:57;14.50;99.90
52869;DHT22;39100;53.480;6.158;2023-05-10T15:01:23;14.50;99.90
52869;DHT22;39100;53.480;6.158;2023-05-10T15:03:49;14.60;99.90
52869;DHT22;39100;53.480;6.158;2023-05-10T15:06:15;14.30;99.90
52869;DHT22;39100;53.480;6.158;2023-05-10T15:08:41;14.20;99.90
52869;DHT22;39100;53.480;6.158;2023-05-10T15:11:07;14.10;99.90
52869;DHT22;39100;53.480;6.158;2023-05-10T15:13:33;14.10;99.90
52869;DHT22;39100;53.480;6.158;2023-05-10T15:15:58;14.00;99.90
52869;DHT22;39100;53.480;6.158;2023-05-10T15:18:24;14.00;99.90
52869;DHT22;39100;53.480;6.158;2023-05-10T15:20:49;13.90;99.90
52869;DHT22;39100;53.480;6.158;2023-05-10T15:23:15;13.80;99.90
52869;DHT22;39100;53.480;6.158;2023-05-10T15:25:40;13.80;99.90
52869;DHT22;39100;53.480;6.158;2023-05-10T15:28:06;13.80;99.90
52869;DHT22;39100;53.480;6.158;2023-05-10T15:30:32;13.80;99.90
52869;DHT22;39100;53.480;6.158;2023-05-10T15:32:57;13.70;99.90
52869;DHT22;39100;53.480;6.158;2023-05-10T15:35:23;13.70;99.90
52869;DHT22;39100;53.480;6.158;2023-05-10T15:37:49;13.60;99.90
52869;DHT22;39100;53.480;6.158;2023-05-10T15:40:15;13.60;99.90
52869;DHT22;39100;53.480;6.158;2023-05-10T15:42:40;13.60;99.90
52869;DHT22;39100;53.480;6.158;2023-05-10T15:45:06;13.60;99.90
52869;DHT22;39100;53.480;6.158;2023-05-10T15:47:32;13.50;99.90
52869;DHT22;39100;53.480;6.158;2023-05-10T15:49:58;13.50;99.90
52869;DHT22;39100;53.480;6.158;2023-05-10T15:52:24;13.40;99.90
52869;DHT22;39100;53.480;6.158;2023-05-10T15:54:49;13.40;99.90
52869;DHT22;39100;53.480;6.158;2023-05-10T15:57:15;13.30;99.90
52869;DHT22;39100;53.480;6.158;2023-05-10T15:59:41;13.20;99.90